Aberdeen, Mississippi
Current Conditions -  °F | °C
As of 4:15 PM on Friday 24 Oct 2014 (Local Time) from KM40 Reporting Station
Clear Clear  
Wind Chill: 77°   Ceiling: Unl
Heat Index: 79°   Visibility: 9mi
Dew Point: 61°   Wind: 8mph
Humidity: 57%   Direction: 340°NNW
Pressure: 30.08"   Gusts: NA
Location:  33.82°N, 88.54°W
Report Text: KM40 242115Z AUTO 34007KT 9SM CLR 25/16 A3008 RMK AO2
Loading
Personal Weather Stations






























Interactive Weather Map
Tropical Storm Tracking
New forecast layout! Learn more

10-Day Weather Forecast

Advertisements
Track Severe Weather on mobile